Airfield :
LOGIN :

Register | Disclaimer

   EN    FR    IT 

 










Legend :    VFR   Marginal VFR   IFR   Intensive IFR   Very Intensive IFR
Visi :
Ceiling :
>= 8 km
>= 3000ft
5 to 8 km
1000 to 3000 ft
1500m to 5 km
500 to 1000 ft
800 to 1500m
200 to 500 ft
< 800m
< 200 ft
Symbols :   Thunderstorms  Fog  Heavy snow  Heavy precipitations  Wind > 20 kt
SIGMETs :     Misc.  Thunderstorms  Icing  Turbulence  Mountain Waves  Volcanic Ashes







- Airport Elevation : 55 ft
- IATA code : DSA
- Download approach charts


EGCN - Robin Hood Doncaster Sheffield

CURRENT METAR :
  • 231420Z 26009KT 210V300 CAVOK 22/10 Q1020

EXPIRED METARs :
  • 231350Z 27006KT 230V310 9999 SCT049 22/10 Q1021
  • 231320Z 28010KT 230V310 9999 BKN047 22/10 Q1021
  • 231250Z 27009KT 230V330 9999 SCT047 22/10 Q1021
  • 231220Z 27010KT 220V300 9999 SCT043 21/11 Q1021
  • 231150Z 29009KT 240V340 9999 BKN042 19/10 Q1020

TAF TAF EGCN
Valid from the 23 at 12:00 until the 24 at 12:00 UTC


231059Z 2312/2412 28009KT 9999 FEW040
No reported NOTAMs for that airfield.



MET'MAP, your aeronautical weather chart ! - Copyright ORBIFLY December 2007 - Disclaimer

ORBIFLY MET'MAP TEAM :

Programming & Development : Alexandra Zaïnal
Concept & Development : Baudouin d'Aumeries
Co-Development & Prog : Marc-Olivier Méhu
Technical & hardware support : Manuel Goepfert

Contact : metmap@orbifly.com




SOURCES & CREDITS :

   NOAA